Time;durP1;ratioP1;P1;durP2;ratioP2;P2;SDS_P1;SDS_P2;PMS_P1;PMS_P2;Temp;Humidity;BMP_temperature;BMP_pressure;BME280_temperature;BME280_humidity;BME280_pressure;Samples;Min_cycle;Max_cycle;Signal;HPM_P1;HPM_P2
2024/03/19 00:00:45;;;;;;;24.92;3.13;;;;;;;;;;5055631;28;20470;-76
2024/03/19 00:03:11;;;;;;;18.35;3.20;;;;;;;;;;5055361;28;20040;-76
2024/03/19 00:05:37;;;;;;;13.68;2.70;;;;;;;;;;5055816;28;20098;-76
2024/03/19 00:08:02;;;;;;;17.15;3.47;;;;;;;;;;5055642;28;20032;-75
2024/03/19 00:10:28;;;;;;;17.77;2.85;;;;;;;;;;5055152;28;20048;-76
2024/03/19 00:12:54;;;;;;;11.63;2.70;;;;;;;;;;5055454;28;20402;-76
2024/03/19 00:15:20;;;;;;;16.95;2.55;;;;;;;;;;5055162;28;20383;-76
2024/03/19 00:17:46;;;;;;;20.38;2.55;;;;;;;;;;5055620;28;20089;-76
2024/03/19 00:20:12;;;;;;;17.10;2.78;;;;;;;;;;5054680;28;20047;-76
2024/03/19 00:22:38;;;;;;;22.00;2.85;;;;;;;;;;5055392;28;20044;-77
2024/03/19 00:25:07;;;;;;;18.27;3.47;;;;;;;;;;5054680;28;20089;-76
2024/03/19 00:27:34;;;;;;;19.00;3.05;;;;;;;;;;5055065;28;20474;-75
2024/03/19 00:30:00;;;;;;;18.90;3.55;;;;;;;;;;5055294;28;20467;-76
2024/03/19 00:32:26;;;;;;;22.05;4.00;;;;;;;;;;5054767;28;20043;-75
2024/03/19 00:34:53;;;;;;;25.17;4.18;;;;;;;;;;5055113;28;20044;-76
2024/03/19 00:37:18;;;;;;;19.02;3.30;;;;;;;;;;5054857;28;20040;-76
2024/03/19 00:39:44;;;;;;;25.05;3.88;;;;;;;;;;5054984;28;20087;-76
2024/03/19 00:42:10;;;;;;;27.42;3.45;;;;;;;;;;5054469;28;20032;-76
2024/03/19 00:44:35;;;;;;;18.33;2.97;;;;;;;;;;5055163;28;20328;-76
2024/03/19 00:47:01;;;;;;;21.30;3.80;;;;;;;;;;5055074;28;20387;-76
2024/03/19 00:49:27;;;;;;;22.42;3.92;;;;;;;;;;5054606;28;20050;-76
2024/03/19 00:51:53;;;;;;;30.75;3.33;;;;;;;;;;5055197;28;20044;-76
2024/03/19 00:54:18;;;;;;;24.38;3.13;;;;;;;;;;5054488;28;20501;-76
2024/03/19 00:56:45;;;;;;;22.85;3.63;;;;;;;;;;5054973;28;20044;-76
2024/03/19 00:59:12;;;;;;;27.75;3.58;;;;;;;;;;5054491;28;20045;-76
2024/03/19 01:01:38;;;;;;;15.52;2.90;;;;;;;;;;5054943;28;20467;-76
2024/03/19 01:04:07;;;;;;;14.35;2.88;;;;;;;;;;5054413;28;20051;-75
2024/03/19 01:06:35;;;;;;;14.90;2.60;;;;;;;;;;5054882;28;20097;-76
2024/03/19 01:09:00;;;;;;;16.33;2.75;;;;;;;;;;5054697;28;20077;-76
2024/03/19 01:11:26;;;;;;;21.17;3.40;;;;;;;;;;5055182;28;20045;-76
2024/03/19 01:13:52;;;;;;;12.45;2.80;;;;;;;;;;5058777;28;20471;-76
2024/03/19 01:16:17;;;;;;;10.57;2.00;;;;;;;;;;5058557;28;20437;-76
2024/03/19 01:18:43;;;;;;;9.27;2.30;;;;;;;;;;5058819;28;20424;-76
2024/03/19 01:21:09;;;;;;;10.60;2.10;;;;;;;;;;5058494;28;20048;-75
2024/03/19 01:23:35;;;;;;;14.15;2.45;;;;;;;;;;5058587;28;20036;-75
2024/03/19 01:26:02;;;;;;;13.40;2.22;;;;;;;;;;5058684;28;20116;-76
2024/03/19 01:28:28;;;;;;;15.70;2.40;;;;;;;;;;5058176;28;20121;-76
2024/03/19 01:30:54;;;;;;;18.02;2.80;;;;;;;;;;5058563;28;20120;-75
2024/03/19 01:33:20;;;;;;;10.00;2.38;;;;;;;;;;5058254;28;20147;-75
2024/03/19 01:35:46;;;;;;;15.50;2.67;;;;;;;;;;5058397;28;20047;-76
2024/03/19 01:38:11;;;;;;;14.05;2.30;;;;;;;;;;5058020;28;20127;-76
2024/03/19 01:40:37;;;;;;;15.25;2.50;;;;;;;;;;5058598;28;20068;-75
2024/03/19 01:43:11;;;;;;;11.60;1.90;;;;;;;;;;5058179;28;20071;-76
2024/03/19 01:45:36;;;;;;;14.95;2.40;;;;;;;;;;5041670;28;20364;-76
2024/03/19 01:48:02;;;;;;;18.20;2.08;;;;;;;;;;5058367;28;20045;-76
2024/03/19 01:50:28;;;;;;;16.88;2.45;;;;;;;;;;5057808;28;20395;-76
2024/03/19 01:52:54;;;;;;;17.20;2.42;;;;;;;;;;5041581;28;20387;-77
2024/03/19 01:55:22;;;;;;;13.73;2.75;;;;;;;;;;5057829;28;20044;-76
2024/03/19 01:57:48;;;;;;;11.50;2.25;;;;;;;;;;5058155;28;20040;-76
2024/03/19 02:00:15;;;;;;;15.35;2.70;;;;;;;;;;5057658;28;20044;-76
2024/03/19 02:02:41;;;;;;;15.50;2.30;;;;;;;;;;5057905;28;20040;-76
2024/03/19 02:05:09;;;;;;;17.80;2.58;;;;;;;;;;5057712;28;20043;-76
2024/03/19 02:07:35;;;;;;;10.32;2.25;;;;;;;;;;5057853;28;20041;-76
2024/03/19 02:10:01;;;;;;;11.73;2.15;;;;;;;;;;5057932;28;20428;-75
2024/03/19 02:12:27;;;;;;;15.60;1.98;;;;;;;;;;5057345;28;20119;-76
2024/03/19 02:14:54;;;;;;;9.40;1.85;;;;;;;;;;5057633;28;20089;-76
2024/03/19 02:17:21;;;;;;;15.50;2.45;;;;;;;;;;5040673;28;20055;-77
2024/03/19 02:19:48;;;;;;;13.70;2.80;;;;;;;;;;5057433;28;20029;-75
2024/03/19 02:22:15;;;;;;;13.95;2.80;;;;;;;;;;5056837;28;20044;-76
2024/03/19 02:24:43;;;;;;;10.60;2.10;;;;;;;;;;5056653;28;20489;-76
2024/03/19 02:27:10;;;;;;;11.30;2.23;;;;;;;;;;5047820;28;20048;-76
2024/03/19 02:29:36;;;;;;;10.27;2.00;;;;;;;;;;5057348;28;20036;-76
2024/03/19 02:32:02;;;;;;;20.48;2.53;;;;;;;;;;5057654;28;20047;-76
2024/03/19 02:34:28;;;;;;;10.82;2.13;;;;;;;;;;5056813;28;20497;-76
2024/03/19 02:36:56;;;;;;;16.05;2.30;;;;;;;;;;5057543;28;20047;-76
2024/03/19 02:39:23;;;;;;;15.43;2.87;;;;;;;;;;5057096;28;20048;-76
2024/03/19 02:41:49;;;;;;;12.50;2.53;;;;;;;;;;5057009;28;20297;-76
2024/03/19 02:44:15;;;;;;;16.40;3.00;;;;;;;;;;5056640;28;20045;-76
2024/03/19 02:46:41;;;;;;;16.83;2.53;;;;;;;;;;5057536;28;20124;-76
2024/03/19 02:49:06;;;;;;;14.20;2.97;;;;;;;;;;5056566;28;20123;-75
2024/03/19 02:51:33;;;;;;;21.17;2.78;;;;;;;;;;5057148;28;20075;-76
2024/03/19 02:53:59;;;;;;;12.50;2.55;;;;;;;;;;5057131;28;20044;-76
2024/03/19 02:56:25;;;;;;;21.35;2.90;;;;;;;;;;5056269;28;20641;-76
2024/03/19 02:58:51;;;;;;;18.05;2.92;;;;;;;;;;5056979;28;20044;-75
2024/03/19 03:01:17;;;;;;;14.52;3.17;;;;;;;;;;5056425;28;20037;-76
2024/03/19 03:03:43;;;;;;;22.60;3.08;;;;;;;;;;5056998;28;20659;-75
2024/03/19 03:06:09;;;;;;;17.88;2.72;;;;;;;;;;5056376;28;20455;-76
2024/03/19 03:08:35;;;;;;;21.20;2.70;;;;;;;;;;5057064;28;20131;-76
2024/03/19 03:11:01;;;;;;;16.08;2.65;;;;;;;;;;5056818;28;20158;-76
2024/03/19 03:13:27;;;;;;;14.98;2.65;;;;;;;;;;5056108;28;20423;-76
2024/03/19 03:15:53;;;;;;;16.55;2.58;;;;;;;;;;5056639;28;20437;-76
2024/03/19 03:18:19;;;;;;;12.40;2.42;;;;;;;;;;5039303;28;20040;-77
2024/03/19 03:20:45;;;;;;;16.13;2.97;;;;;;;;;;5056619;28;20054;-76
2024/03/19 03:23:13;;;;;;;13.30;1.88;;;;;;;;;;5039552;28;20060;-76
2024/03/19 03:25:39;;;;;;;14.38;2.28;;;;;;;;;;5056340;28;20062;-76
2024/03/19 03:28:05;;;;;;;20.15;2.80;;;;;;;;;;5056170;28;20036;-76
2024/03/19 03:30:31;;;;;;;12.10;2.50;;;;;;;;;;5039812;28;20040;-76
2024/03/19 03:32:56;;;;;;;14.32;1.95;;;;;;;;;;5056596;28;20036;-75
2024/03/19 03:35:22;;;;;;;16.55;2.40;;;;;;;;;;5055452;28;20068;-77
2024/03/19 03:37:48;;;;;;;12.38;2.60;;;;;;;;;;5056356;28;20060;-76
2024/03/19 03:40:17;;;;;;;15.63;2.42;;;;;;;;;;5055797;28;20047;-77
2024/03/19 03:42:47;;;;;;;14.45;2.55;;;;;;;;;;5056105;28;20048;-76
2024/03/19 03:45:17;;;;;;;15.75;2.78;;;;;;;;;;5055577;28;20486;-76
2024/03/19 03:47:43;;;;;;;16.88;2.60;;;;;;;;;;5056053;28;20040;-77
2024/03/19 03:50:11;;;;;;;17.25;2.30;;;;;;;;;;5055550;28;20494;-76
2024/03/19 03:52:37;;;;;;;18.60;2.78;;;;;;;;;;5056152;28;20037;-76
2024/03/19 03:55:05;;;;;;;14.55;2.58;;;;;;;;;;5056007;28;20049;-76
2024/03/19 03:57:33;;;;;;;16.48;2.42;;;;;;;;;;5039144;28;20044;-76
2024/03/19 03:59:59;;;;;;;14.10;2.50;;;;;;;;;;5055900;28;20047;-75
2024/03/19 04:02:25;;;;;;;15.98;2.53;;;;;;;;;;5055190;28;20545;-76
2024/03/19 04:04:54;;;;;;;13.75;2.42;;;;;;;;;;5055992;28;20067;-76
2024/03/19 04:07:20;;;;;;;17.00;2.17;;;;;;;;;;5055322;28;20052;-76
2024/03/19 04:09:45;;;;;;;12.85;2.75;;;;;;;;;;5055566;28;20132;-75
2024/03/19 04:12:12;;;;;;;14.02;2.40;;;;;;;;;;5055077;28;20050;-76
2024/03/19 04:14:37;;;;;;;15.20;2.95;;;;;;;;;;5055889;28;20048;-76
2024/03/19 04:17:03;;;;;;;12.80;2.55;;;;;;;;;;5038666;28;20094;-76
2024/03/19 04:19:29;;;;;;;15.55;2.70;;;;;;;;;;5055165;28;20471;-76
2024/03/19 04:21:55;;;;;;;10.07;1.77;;;;;;;;;;5055385;28;20044;-76
2024/03/19 04:24:21;;;;;;;9.93;3.22;;;;;;;;;;5054947;28;20055;-75
2024/03/19 04:26:47;;;;;;;13.73;2.25;;;;;;;;;;5055321;28;20402;-76
2024/03/19 04:29:15;;;;;;;9.25;2.63;;;;;;;;;;5054856;28;20040;-76
2024/03/19 04:31:42;;;;;;;14.98;2.60;;;;;;;;;;5055113;28;20552;-77
2024/03/19 04:34:09;;;;;;;14.13;2.47;;;;;;;;;;5054759;28;20045;-76
2024/03/19 04:36:35;;;;;;;16.02;2.60;;;;;;;;;;5055455;28;20047;-76
2024/03/19 04:39:10;;;;;;;15.55;2.40;;;;;;;;;;5055068;28;20123;-76
2024/03/19 04:41:39;;;;;;;20.77;3.58;;;;;;;;;;5055002;28;20048;-76
2024/03/19 04:44:06;;;;;;;19.15;3.42;;;;;;;;;;5054914;28;20040;-75
2024/03/19 04:46:33;;;;;;;22.25;3.50;;;;;;;;;;5054434;28;20093;-76
2024/03/19 04:48:59;;;;;;;19.88;3.00;;;;;;;;;;5055049;28;20036;-77
2024/03/19 04:51:26;;;;;;;19.70;3.50;;;;;;;;;;5054569;28;20048;-76
2024/03/19 04:53:52;;;;;;;20.55;3.67;;;;;;;;;;5055110;28;20494;-77
2024/03/19 04:56:18;;;;;;;14.77;2.35;;;;;;;;;;5054501;28;20040;-76
2024/03/19 04:58:44;;;;;;;20.17;3.13;;;;;;;;;;5055099;28;20040;-76
2024/03/19 05:01:14;;;;;;;14.35;2.35;;;;;;;;;;5054387;28;20078;-76
2024/03/19 05:03:40;;;;;;;19.35;3.72;;;;;;;;;;5054855;28;20085;-77
2024/03/19 05:06:06;;;;;;;19.90;2.65;;;;;;;;;;5054326;28;20426;-75
2024/03/19 05:08:31;;;;;;;19.15;3.08;;;;;;;;;;5054626;28;20166;-76
2024/03/19 05:10:57;;;;;;;15.13;3.00;;;;;;;;;;5055101;28;20162;-76
2024/03/19 05:13:23;;;;;;;13.27;3.50;;;;;;;;;;5054399;28;20097;-76
2024/03/19 05:15:49;;;;;;;14.80;3.00;;;;;;;;;;5054743;28;20045;-76
2024/03/19 05:18:14;;;;;;;15.93;2.88;;;;;;;;;;5053939;28;20036;-76
2024/03/19 05:20:40;;;;;;;12.23;2.60;;;;;;;;;;5055054;28;20039;-77
2024/03/19 05:23:06;;;;;;;17.02;3.45;;;;;;;;;;5054447;28;20041;-76
2024/03/19 05:25:31;;;;;;;11.52;3.20;;;;;;;;;;5054564;28;20041;-76
2024/03/19 05:27:57;;;;;;;9.30;2.70;;;;;;;;;;5054706;28;20090;-76
2024/03/19 05:30:28;;;;;;;8.50;2.50;;;;;;;;;;5054252;28;20090;-76
2024/03/19 05:32:54;;;;;;;16.70;2.70;;;;;;;;;;5054464;28;20048;-81
2024/03/19 05:35:20;;;;;;;18.38;3.55;;;;;;;;;;5054147;28;20055;-77
2024/03/19 05:37:45;;;;;;;15.43;2.80;;;;;;;;;;5054548;28;20033;-76
2024/03/19 05:40:12;;;;;;;19.33;3.08;;;;;;;;;;5054350;28;20443;-77
2024/03/19 05:42:38;;;;;;;16.63;2.88;;;;;;;;;;5054658;28;20044;-77
2024/03/19 05:45:05;;;;;;;11.05;2.97;;;;;;;;;;5054426;28;20043;-77
2024/03/19 05:47:34;;;;;;;16.83;3.75;;;;;;;;;;5054199;28;20471;-76
2024/03/19 05:50:03;;;;;;;14.02;3.65;;;;;;;;;;5054425;28;20086;-77
2024/03/19 05:52:29;;;;;;;;;;;;;;;;;;5054390;28;20302;-77
2024/03/19 05:54:55;;;;;;;15.18;3.05;;;;;;;;;;5054247;28;19921;-76
2024/03/19 05:57:21;;;;;;;14.30;3.20;;;;;;;;;;5054695;28;20054;-77
2024/03/19 05:59:47;;;;;;;15.55;3.38;;;;;;;;;;5058265;28;20040;-76
2024/03/19 06:02:14;;;;;;;14.38;3.33;;;;;;;;;;5057583;28;20105;-76
2024/03/19 06:04:39;;;;;;;18.77;2.92;;;;;;;;;;5058080;28;20098;-76
2024/03/19 06:07:05;;;;;;;14.73;3.60;;;;;;;;;;5057392;28;20467;-76
2024/03/19 06:09:32;;;;;;;9.77;2.67;;;;;;;;;;5058062;28;20417;-77
2024/03/19 06:11:58;;;;;;;13.13;3.42;;;;;;;;;;5057759;28;20629;-77
2024/03/19 06:14:24;;;;;;;20.13;3.75;;;;;;;;;;5057591;28;20471;-77
2024/03/19 06:16:50;;;;;;;24.15;3.70;;;;;;;;;;5057603;28;20045;-77
2024/03/19 06:19:16;;;;;;;14.15;3.53;;;;;;;;;;5056840;28;20066;-77
2024/03/19 06:21:43;;;;;;;17.67;4.20;;;;;;;;;;5057681;28;20036;-77
2024/03/19 06:24:09;;;;;;;19.42;4.63;;;;;;;;;;5057332;28;20081;-77
2024/03/19 06:26:35;;;;;;;17.10;3.63;;;;;;;;;;5057553;28;20033;-76
2024/03/19 06:29:03;;;;;;;26.50;4.70;;;;;;;;;;5041014;28;20051;-76
2024/03/19 06:31:32;;;;;;;22.83;3.63;;;;;;;;;;5057443;28;20047;-77
2024/03/19 06:33:58;;;;;;;;;;;;;;;;;;5058208;28;20051;-77
2024/03/19 06:36:24;;;;;;;23.38;4.13;;;;;;;;;;5037131;28;20019;-77
2024/03/19 06:38:50;;;;;;;21.17;4.20;;;;;;;;;;5037477;28;20044;-76
2024/03/19 06:41:16;;;;;;;21.63;3.97;;;;;;;;;;5036999;28;20090;-77
2024/03/19 06:43:42;;;;;;;23.38;4.57;;;;;;;;;;5037222;28;20045;-77
2024/03/19 06:46:08;;;;;;;23.88;3.80;;;;;;;;;;5036942;28;20037;-77
2024/03/19 06:48:34;;;;;;;21.45;4.43;;;;;;;;;;5037289;28;20095;-76
2024/03/19 06:51:00;;;;;;;32.05;4.90;;;;;;;;;;5037434;28;20047;-77
2024/03/19 06:53:27;;;;;;;27.77;4.45;;;;;;;;;;5036831;28;20037;-77
2024/03/19 06:55:54;;;;;;;22.63;4.55;;;;;;;;;;5037341;28;20044;-78
2024/03/19 06:58:20;;;;;;;19.48;4.68;;;;;;;;;;5036854;28;20053;-77
2024/03/19 07:00:47;;;;;;;23.67;4.72;;;;;;;;;;5037108;28;20047;-77
2024/03/19 07:03:13;;;;;;;22.60;4.65;;;;;;;;;;5036491;28;20398;-77
2024/03/19 07:05:39;;;;;;;24.40;4.07;;;;;;;;;;5037121;28;20045;-77
2024/03/19 07:08:05;;;;;;;26.08;4.57;;;;;;;;;;5036670;28;20045;-77
2024/03/19 07:10:31;;;;;;;23.05;4.05;;;;;;;;;;5035909;28;20053;-77
2024/03/19 07:12:57;;;;;;;23.67;5.25;;;;;;;;;;5036760;28;20448;-76
2024/03/19 07:15:23;;;;;;;19.25;4.75;;;;;;;;;;5036282;28;20044;-76
2024/03/19 07:17:50;;;;;;;22.42;4.20;;;;;;;;;;5036735;28;20040;-77
2024/03/19 07:20:18;;;;;;;17.25;4.45;;;;;;;;;;5035915;28;20048;-77
2024/03/19 07:22:46;;;;;;;23.75;4.10;;;;;;;;;;5036710;28;20434;-77
2024/03/19 07:25:13;;;;;;;23.00;4.03;;;;;;;;;;5040098;28;20044;-77
2024/03/19 07:27:41;;;;;;;17.13;3.83;;;;;;;;;;5056355;28;20037;-77
2024/03/19 07:30:13;;;;;;;19.50;4.75;;;;;;;;;;5056080;28;20036;-77
2024/03/19 07:32:40;;;;;;;20.25;4.18;;;;;;;;;;5056295;28;20051;-78
2024/03/19 07:35:07;;;;;;;19.35;3.85;;;;;;;;;;5038849;28;20058;-77
2024/03/19 07:37:38;;;;;;;20.85;4.45;;;;;;;;;;5048898;28;20044;-77
2024/03/19 07:40:05;;;;;;;17.08;4.50;;;;;;;;;;5054520;28;20487;-77
2024/03/19 07:42:30;;;;;;;18.42;3.85;;;;;;;;;;5055198;28;20429;-77
2024/03/19 07:44:56;;;;;;;18.80;4.13;;;;;;;;;;5055313;28;20036;-77
2024/03/19 07:47:22;;;;;;;19.85;3.90;;;;;;;;;;5053983;28;20048;-77
2024/03/19 07:49:48;;;;;;;23.27;4.30;;;;;;;;;;5054746;28;20044;-77
2024/03/19 07:52:14;;;;;;;21.13;4.03;;;;;;;;;;5054064;28;20048;-76
2024/03/19 07:54:40;;;;;;;19.75;4.53;;;;;;;;;;5054525;28;20055;-77
2024/03/19 07:57:06;;;;;;;28.27;3.95;;;;;;;;;;5054080;28;20040;-77
2024/03/19 07:59:32;;;;;;;15.73;4.07;;;;;;;;;;5054201;28;20067;-77
2024/03/19 08:01:58;;;;;;;19.77;4.72;;;;;;;;;;5054074;28;20523;-77
2024/03/19 08:04:24;;;;;;;25.23;4.53;;;;;;;;;;5053531;28;20657;-76
2024/03/19 08:06:52;;;;;;;17.73;4.45;;;;;;;;;;5054157;28;20041;-76
2024/03/19 08:09:18;;;;;;;21.42;4.40;;;;;;;;;;5053547;28;20485;-77
2024/03/19 08:11:44;;;;;;;21.85;4.25;;;;;;;;;;5054089;28;20048;-77
2024/03/19 08:14:10;;;;;;;21.60;4.43;;;;;;;;;;5053439;28;20036;-77
2024/03/19 08:16:36;;;;;;;20.15;4.10;;;;;;;;;;5053871;28;20044;-77
2024/03/19 08:19:03;;;;;;;23.60;4.00;;;;;;;;;;5037203;28;20394;-76
2024/03/19 08:21:29;;;;;;;19.10;4.03;;;;;;;;;;5053665;28;20048;-77
2024/03/19 08:23:54;;;;;;;22.38;4.10;;;;;;;;;;5053915;28;20387;-77
2024/03/19 08:26:20;;;;;;;20.92;4.15;;;;;;;;;;5053335;28;20093;-77
2024/03/19 08:28:46;;;;;;;20.60;4.00;;;;;;;;;;5053886;28;20045;-76
2024/03/19 08:31:12;;;;;;;23.88;3.92;;;;;;;;;;5053192;28;20047;-77
2024/03/19 08:33:39;;;;;;;20.17;3.80;;;;;;;;;;5053754;28;20046;-77
2024/03/19 08:36:05;;;;;;;20.50;3.88;;;;;;;;;;5052954;28;20554;-76
2024/03/19 08:38:35;;;;;;;19.35;4.07;;;;;;;;;;5053793;28;20047;-77
2024/03/19 08:41:02;;;;;;;17.67;4.15;;;;;;;;;;5053342;28;20040;-76
2024/03/19 08:43:28;;;;;;;21.40;4.07;;;;;;;;;;5053160;28;20390;-77
2024/03/19 08:45:54;;;;;;;16.85;3.33;;;;;;;;;;5053005;28;20382;-77
2024/03/19 08:48:20;;;;;;;22.10;3.53;;;;;;;;;;5052535;28;20053;-75
2024/03/19 08:50:46;;;;;;;17.48;3.85;;;;;;;;;;5054772;28;20041;-76
2024/03/19 08:53:12;;;;;;;15.70;3.38;;;;;;;;;;5054499;28;20044;-77
2024/03/19 08:55:38;;;;;;;12.35;3.55;;;;;;;;;;5055113;28;20071;-77
2024/03/19 08:58:04;;;;;;;17.60;3.38;;;;;;;;;;5055101;28;20402;-76
2024/03/19 09:00:31;;;;;;;18.83;3.65;;;;;;;;;;5053731;28;20554;-76
2024/03/19 09:02:57;;;;;;;15.68;3.75;;;;;;;;;;5054809;28;20410;-76
2024/03/19 09:05:23;;;;;;;19.73;3.47;;;;;;;;;;5054577;28;20044;-76
2024/03/19 09:07:49;;;;;;;15.00;3.38;;;;;;;;;;5054668;28;20043;-76
2024/03/19 09:10:15;;;;;;;13.90;4.00;;;;;;;;;;5054419;28;20044;-77
2024/03/19 09:12:41;;;;;;;12.57;2.92;;;;;;;;;;5054899;28;20453;-77
2024/03/19 09:15:11;;;;;;;17.05;3.72;;;;;;;;;;5037936;28;20036;-76
2024/03/19 09:17:38;;;;;;;16.63;3.45;;;;;;;;;;5038039;28;20036;-78
2024/03/19 09:20:05;;;;;;;19.80;3.75;;;;;;;;;;5054606;28;20048;-76
2024/03/19 09:22:32;;;;;;;14.23;3.30;;;;;;;;;;5054406;28;20047;-77
2024/03/19 09:25:02;;;;;;;17.17;3.53;;;;;;;;;;5054679;28;20111;-77
2024/03/19 09:27:28;;;;;;;19.80;4.28;;;;;;;;;;5054308;28;20477;-77
2024/03/19 09:29:55;;;;;;;12.52;3.10;;;;;;;;;;5054738;28;20037;-76
2024/03/19 09:32:22;;;;;;;14.43;3.42;;;;;;;;;;5054976;28;20390;-76
2024/03/19 09:34:48;;;;;;;15.27;2.90;;;;;;;;;;5058720;28;20040;-77
2024/03/19 09:37:15;;;;;;;16.75;2.55;;;;;;;;;;5058241;28;20036;-77
2024/03/19 09:39:41;;;;;;;14.55;3.30;;;;;;;;;;5042018;28;20405;-76
2024/03/19 09:42:13;;;;;;;16.33;4.03;;;;;;;;;;5058053;28;20045;-77
2024/03/19 09:44:42;;;;;;;11.57;2.45;;;;;;;;;;5042062;28;20066;-76
2024/03/19 09:47:09;;;;;;;10.32;2.42;;;;;;;;;;5057778;28;20556;-76
2024/03/19 09:49:35;;;;;;;9.40;1.90;;;;;;;;;;5058348;28;20041;-77
2024/03/19 09:52:06;;;;;;;14.27;2.45;;;;;;;;;;5058332;28;20037;-77
2024/03/19 09:54:33;;;;;;;13.38;2.38;;;;;;;;;;5058067;28;20433;-76
2024/03/19 09:57:00;;;;;;;12.52;2.65;;;;;;;;;;5058193;28;20089;-76
2024/03/19 09:59:27;;;;;;;12.45;2.70;;;;;;;;;;5057905;28;20048;-76
2024/03/19 10:01:54;;;;;;;11.35;2.42;;;;;;;;;;5057232;28;20400;-76
2024/03/19 10:04:21;;;;;;;12.05;2.33;;;;;;;;;;5057755;28;20040;-76
2024/03/19 10:06:49;;;;;;;8.48;1.73;;;;;;;;;;5057890;28;20052;-76
2024/03/19 10:09:16;;;;;;;8.55;1.98;;;;;;;;;;5041048;28;20048;-76
2024/03/19 10:11:43;;;;;;;8.60;1.83;;;;;;;;;;5058009;28;20463;-76
2024/03/19 10:14:10;;;;;;;5.75;1.70;;;;;;;;;;5057441;28;20046;-77
2024/03/19 10:16:43;;;;;;;8.55;1.90;;;;;;;;;;5057878;28;20054;-76
2024/03/19 10:19:12;;;;;;;7.32;1.45;;;;;;;;;;5057324;28;20050;-77
2024/03/19 10:21:43;;;;;;;;;;;;;;;;;;5058314;28;20428;-76
2024/03/19 10:24:13;;;;;;;7.07;1.40;;;;;;;;;;5057452;28;19920;-77
2024/03/19 10:26:40;;;;;;;13.15;1.50;;;;;;;;;;5057744;28;20394;-76
2024/03/19 10:29:15;;;;;;;14.18;2.30;;;;;;;;;;5057047;28;20047;-77
2024/03/19 10:31:48;;;;;;;8.35;2.03;;;;;;;;;;5057774;28;20045;-76
2024/03/19 10:34:17;;;;;;;14.23;1.50;;;;;;;;;;5057024;28;20062;-76
2024/03/19 10:36:48;;;;;;;16.45;2.08;;;;;;;;;;5057552;28;20482;-77
2024/03/19 10:39:15;;;;;;;8.55;1.55;;;;;;;;;;5056066;28;20470;-77
2024/03/19 10:41:43;;;;;;;7.57;1.77;;;;;;;;;;5057141;28;20058;-76
2024/03/19 10:44:15;;;;;;;9.88;1.73;;;;;;;;;;5055568;28;20517;-76
2024/03/19 10:46:41;;;;;;;9.30;1.92;;;;;;;;;;5057585;28;20360;-76
2024/03/19 10:49:11;;;;;;;11.40;2.10;;;;;;;;;;5056959;28;20072;-76
2024/03/19 10:51:37;;;;;;;7.38;1.88;;;;;;;;;;5057311;28;20090;-77
2024/03/19 10:54:05;;;;;;;7.15;1.40;;;;;;;;;;5057028;28;20430;-76
2024/03/19 10:56:30;;;;;;;9.68;1.75;;;;;;;;;;5056587;28;20040;-76
2024/03/19 10:58:56;;;;;;;7.82;1.77;;;;;;;;;;5056946;28;20141;-76
2024/03/19 11:01:22;;;;;;;12.35;2.22;;;;;;;;;;5056569;28;20123;-76
2024/03/19 11:03:54;;;;;;;8.57;2.05;;;;;;;;;;5056842;28;20044;-76
2024/03/19 11:06:22;;;;;;;9.00;2.15;;;;;;;;;;5056336;28;20545;-76
2024/03/19 11:08:53;;;;;;;8.63;1.67;;;;;;;;;;5023931;28;20047;-76
2024/03/19 11:11:19;;;;;;;9.60;1.88;;;;;;;;;;5056522;28;20047;-76
2024/03/19 11:13:51;;;;;;;9.55;1.98;;;;;;;;;;5056720;28;20037;-77
2024/03/19 11:16:19;;;;;;;8.75;1.70;;;;;;;;;;5056184;28;20029;-76
2024/03/19 11:18:49;;;;;;;9.50;2.28;;;;;;;;;;5056578;28;20041;-77
2024/03/19 11:21:22;;;;;;;6.55;1.73;;;;;;;;;;5056481;28;20032;-76
2024/03/19 11:23:51;;;;;;;8.90;1.90;;;;;;;;;;5039788;28;20090;-76
2024/03/19 11:26:16;;;;;;;;;;;;;;;;;;5056343;28;20033;-76
2024/03/19 11:28:58;;;;;;;9.25;1.92;;;;;;;;;;5056412;28;21017;-76
2024/03/19 11:31:37;;;;;;;6.00;1.65;;;;;;;;;;5056364;28;20074;-76
2024/03/19 11:34:02;;;;;;;;;;;;;;;;;;5056980;28;20037;-76
2024/03/19 11:36:28;;;;;;;8.38;1.95;;;;;;;;;;5055856;28;19998;-76
2024/03/19 11:38:54;;;;;;;9.18;1.60;;;;;;;;;;5056393;28;20070;-76
2024/03/19 11:41:20;;;;;;;9.55;1.98;;;;;;;;;;5039289;28;20048;-76
2024/03/19 11:43:46;;;;;;;10.65;2.28;;;;;;;;;;5056079;28;20036;-76
2024/03/19 11:46:13;;;;;;;9.73;1.90;;;;;;;;;;5055941;28;20048;-76
2024/03/19 11:48:39;;;;;;;16.60;2.10;;;;;;;;;;5056157;28;20463;-76
2024/03/19 11:51:04;;;;;;;10.32;1.70;;;;;;;;;;5055588;28;20078;-75
2024/03/19 11:53:30;;;;;;;11.75;2.20;;;;;;;;;;5054558;28;20080;-77
2024/03/19 11:55:56;;;;;;;13.13;2.30;;;;;;;;;;5049746;28;20065;-76
2024/03/19 11:58:24;;;;;;;6.70;1.42;;;;;;;;;;5053758;28;20057;-76
2024/03/19 12:00:50;;;;;;;8.48;1.73;;;;;;;;;;5054430;28;20044;-77
2024/03/19 12:03:18;;;;;;;11.75;2.13;;;;;;;;;;5053765;28;20037;-76
2024/03/19 12:05:50;;;;;;;7.85;1.63;;;;;;;;;;5053693;28;20037;-76
2024/03/19 12:08:16;;;;;;;12.02;2.17;;;;;;;;;;5053698;28;20043;-75
2024/03/19 12:10:42;;;;;;;6.63;1.75;;;;;;;;;;5053964;28;20047;-76
2024/03/19 12:13:10;;;;;;;11.10;1.77;;;;;;;;;;5053915;28;20040;-76
2024/03/19 12:15:37;;;;;;;11.35;1.70;;;;;;;;;;5053884;28;20461;-75
2024/03/19 12:18:05;;;;;;;7.07;2.00;;;;;;;;;;5054038;28;20494;-76
2024/03/19 12:20:32;;;;;;;9.53;1.80;;;;;;;;;;5053510;28;20383;-76
2024/03/19 12:22:58;;;;;;;8.15;1.70;;;;;;;;;;5054016;28;20267;-76
2024/03/19 12:25:25;;;;;;;9.70;2.38;;;;;;;;;;5053410;28;21653;-76
2024/03/19 12:27:51;;;;;;;5.85;1.30;;;;;;;;;;5053424;28;20433;-76
2024/03/19 12:30:19;;;;;;;7.28;1.90;;;;;;;;;;5053391;28;20177;-76
2024/03/19 12:32:59;;;;;;;7.85;1.80;;;;;;;;;;5053874;28;20036;-76
2024/03/19 12:35:28;;;;;;;9.02;1.95;;;;;;;;;;5053162;28;20432;-78
2024/03/19 12:37:54;;;;;;;;;;;;;;;;;;5037567;28;20048;-79
2024/03/19 12:40:22;;;;;;;7.78;1.80;;;;;;;;;;5053094;28;19920;-76
2024/03/19 12:42:49;;;;;;;6.75;2.03;;;;;;;;;;5053255;28;20052;-77
2024/03/19 12:45:16;;;;;;;7.60;1.63;;;;;;;;;;5053310;28;20041;-76
2024/03/19 12:47:43;;;;;;;6.57;1.70;;;;;;;;;;5053555;28;20040;-76
2024/03/19 12:50:10;;;;;;;4.97;1.75;;;;;;;;;;5053171;28;20051;-77
2024/03/19 12:52:36;;;;;;;10.45;2.10;;;;;;;;;;5046953;28;20085;-76
2024/03/19 12:55:03;;;;;;;7.68;1.92;;;;;;;;;;5046532;28;20360;-76
2024/03/19 12:57:29;;;;;;;14.77;2.25;;;;;;;;;;5052881;28;20078;-76
2024/03/19 12:59:55;;;;;;;12.35;2.10;;;;;;;;;;5053350;28;20040;-76
2024/03/19 13:02:21;;;;;;;16.40;2.92;;;;;;;;;;5052866;28;20045;-76
2024/03/19 13:04:46;;;;;;;7.45;2.05;;;;;;;;;;5053468;28;20124;-77
2024/03/19 13:07:12;;;;;;;12.95;2.55;;;;;;;;;;5052257;28;20033;-76
2024/03/19 13:09:38;;;;;;;8.77;2.35;;;;;;;;;;5052838;28;20048;-76
2024/03/19 13:12:04;;;;;;;10.55;2.33;;;;;;;;;;5052776;28;20044;-76
2024/03/19 13:14:30;;;;;;;9.98;2.45;;;;;;;;;;5053008;28;20072;-76
2024/03/19 13:16:56;;;;;;;15.77;2.70;;;;;;;;;;5054408;28;20036;-76
2024/03/19 13:19:22;;;;;;;9.45;1.98;;;;;;;;;;5050801;28;20466;-77
2024/03/19 13:21:47;;;;;;;8.23;1.63;;;;;;;;;;5051250;28;20543;-77
2024/03/19 13:24:13;;;;;;;9.27;2.00;;;;;;;;;;5050316;28;20045;-77
2024/03/19 13:26:39;;;;;;;9.88;1.70;;;;;;;;;;5045684;28;20177;-76
2024/03/19 13:29:05;;;;;;;9.73;2.13;;;;;;;;;;5058110;28;20037;-76
2024/03/19 13:31:31;;;;;;;9.73;1.85;;;;;;;;;;5047024;28;20402;-76
2024/03/19 13:33:57;;;;;;;9.65;1.80;;;;;;;;;;5022622;28;20045;-76
2024/03/19 13:36:23;;;;;;;7.68;1.98;;;;;;;;;;5034515;28;20042;-76
2024/03/19 13:38:51;;;;;;;9.88;2.17;;;;;;;;;;5031434;28;20108;-77
2024/03/19 13:41:19;;;;;;;11.35;1.77;;;;;;;;;;5014895;28;20042;-76
2024/03/19 13:43:46;;;;;;;5.13;2.10;;;;;;;;;;5052610;28;20086;-77
2024/03/19 13:46:13;;;;;;;10.88;1.95;;;;;;;;;;5050804;28;20043;-76
2024/03/19 13:48:40;;;;;;;11.65;1.98;;;;;;;;;;5051256;28;20041;-77
2024/03/19 13:51:06;;;;;;;6.78;1.50;;;;;;;;;;5050663;28;20037;-77
2024/03/19 13:53:33;;;;;;;10.02;1.85;;;;;;;;;;5051103;28;20047;-76
2024/03/19 13:56:00;;;;;;;8.20;1.90;;;;;;;;;;5051025;28;20059;-77
2024/03/19 13:58:26;;;;;;;7.60;1.90;;;;;;;;;;5050612;28;20041;-76
2024/03/19 14:00:57;;;;;;;6.88;2.10;;;;;;;;;;5058344;28;20037;-77
2024/03/19 14:03:24;;;;;;;7.95;2.45;;;;;;;;;;5034774;28;20048;-77
2024/03/19 14:05:50;;;;;;;10.82;2.65;;;;;;;;;;5051181;28;20037;-76
2024/03/19 14:08:16;;;;;;;8.30;2.58;;;;;;;;;;5050323;28;20494;-76
2024/03/19 14:10:43;;;;;;;15.40;5.75;;;;;;;;;;5051385;28;20037;-77
2024/03/19 14:13:09;;;;;;;22.30;10.27;;;;;;;;;;5050761;28;20041;-76
2024/03/19 14:15:37;;;;;;;17.58;6.10;;;;;;;;;;5050932;28;20037;-76
2024/03/19 14:18:06;;;;;;;9.50;2.05;;;;;;;;;;5051068;28;20044;-77
2024/03/19 14:20:36;;;;;;;10.35;2.33;;;;;;;;;;5054113;28;20043;-76
2024/03/19 14:23:02;;;;;;;8.98;2.13;;;;;;;;;;5054455;28;20048;-76
2024/03/19 14:25:27;;;;;;;8.90;2.10;;;;;;;;;;5053754;28;20088;-77
2024/03/19 14:27:53;;;;;;;9.38;2.28;;;;;;;;;;5054265;28;20048;-77
2024/03/19 14:30:19;;;;;;;7.88;2.22;;;;;;;;;;5053938;28;20140;-76
2024/03/19 14:32:45;;;;;;;9.90;2.30;;;;;;;;;;5054221;28;20051;-76